Flight Track Log - Related Links

Times and Time Zones

All times are in EDT time to prevent confusion due to time zone crossing. See the VH-VBH flight status page for this flight to view local times or setup timezone preferences in your user account.

Time Position Orientation Groundspeed Altitude Reporting Facility
EDT Latitude Longitude Course Direction KTS MPH feet Rate Location/Type
Wed 12:10:52 AM -27.6930 153.2317 107° East 93 107 1,400  Level Aus ATC (RADAR)
Wed 12:11:32 AM -27.6982 153.2515 107° East 95 109 1,500 67 Climbing Aus ATC (RADAR)
Wed 12:12:22 AM -27.7057 153.2750 110° East 93 107 1,500 -67 Level Aus ATC (RADAR)
Wed 12:13:02 AM -27.7112 153.2947 108° East 99 114 1,400 -67 Descending Aus ATC (RADAR)
Wed 12:13:51 AM -27.7279 153.3119 138° Southeast 96 110 1,400 90 Level Aus ATC (RADAR)
Wed 12:15:16 AM -27.7438 153.3502 115° Southeast 96 110 1,600 55 Climbing Aus ATC (RADAR)
Wed 12:15:41 AM -27.7470 153.3635 105° East 102 117 1,500 -185 Descending Aus ATC (RADAR)
Wed 12:16:21 AM -27.7540 153.3841 111° Southeast 103 119 1,400 -282 Descending Aus ATC (RADAR)
Wed 12:17:06 AM -27.7585 153.4084 102° East 103 119 1,100 -300 Descending Aus ATC (RADAR)
Wed 12:17:41 AM -27.7596 153.4279 94° East 104 120 1,000 -71 Descending Aus ATC (RADAR)
Wed 12:18:31 AM -27.7722 153.4460 128° Southeast 103 119 1,000 -80 Level Aus ATC (RADAR)
Wed 12:18:56 AM -27.7847 153.4439 189° South 107 123 900  Descending Aus ATC (RADAR)
Wed 12:20:06 AM -27.8175 153.4379 189° South 103 119 1,000  Climbing Aus ATC (RADAR)
Wed 12:20:31 AM -27.8293 153.4362 188° South 103 119 900 -92 Descending Aus ATC (RADAR)
Wed 12:21:11 AM -27.8477 153.4348 184° South 100 115 900  Level Aus ATC (RADAR)
Wed 12:21:46 AM -27.8644 153.4332 185° South 103 119 900  Level Aus ATC (RADAR)
Wed 12:22:21 AM -27.8805 153.4321 183° South 100 115 900 76 Level Aus ATC (RADAR)
Wed 12:23:05 AM -27.9013 153.4326 179° South 99 114 1,000  Climbing Aus ATC (RADAR)
Wed 12:23:30 AM -27.9127 153.4330 178° South 99 114 900 -98 Descending Aus ATC (RADAR)
Wed 12:24:06 AM -27.9289 153.4343 176° South 99 114 900  Level Aus ATC (RADAR)
Wed 12:25:25 AM -27.9657 153.4341 180° South 99 114 900  Level Aus ATC (RADAR)
Wed 12:25:50 AM -27.9779 153.4336 182° South 103 119 900  Level Aus ATC (RADAR)
Wed 12:26:35 AM -27.9986 153.4352 176° South 99 114 900 71 Level Aus ATC (RADAR)
Wed 12:27:15 AM -28.0171 153.4378 173° South 101 116 1,000  Climbing Aus ATC (RADAR)
Wed 12:27:50 AM -28.0331 153.4430 164° South 101 116 900  Descending Aus ATC (RADAR)
Wed 12:28:40 AM -28.0551 153.4500 164° South 99 114 1,000 80 Climbing Aus ATC (RADAR)
Wed 12:29:05 AM -28.0662 153.4532 166° South 99 114 1,000 -57 Level Aus ATC (RADAR)
Wed 12:30:25 AM -28.1003 153.4705 156° South 100 115 900 -171 Descending Aus ATC (RADAR)
Wed 12:30:50 AM -28.1114 153.4766 154° Southeast 103 119 700 -100 Descending Aus ATC (RADAR)
Wed 12:31:25 AM -28.1241 153.4850 150° Southeast 91 105 800 -71 Climbing Aus ATC (RADAR)
Wed 12:32:14 AM -28.1417 153.4954 152° Southeast 80 92 600 -214 Descending Aus ATC (RADAR)
Wed 12:32:49 AM -28.1518 153.5013 153° Southeast 67 77 500 -375 Descending Aus ATC (RADAR)
Wed 12:33:34 AM -28.1607 153.5093 142° Southeast 52 60 100 -533 Descending Aus ATC (RADAR)

Login

Don't have an account? Register now (free) for customized features, flight alerts, and more!